sensor_id;sensor_type;location;lat;lon;timestamp;P1;durP1;ratioP1;P2;durP2;ratioP2
79496;SDS011;75160;53.138;18.020;2024-03-17T00:01:03;10.60;;;1.70;;
79496;SDS011;75160;53.138;18.020;2024-03-17T00:02:25;7.90;;;1.60;;
79496;SDS011;75160;53.138;18.020;2024-03-17T00:03:29;12.10;;;1.50;;
79496;SDS011;75160;53.138;18.020;2024-03-17T00:04:31;10.30;;;2.30;;
79496;SDS011;75160;53.138;18.020;2024-03-17T00:05:33;7.50;;;1.50;;
79496;SDS011;75160;53.138;18.020;2024-03-17T00:06:34;7.70;;;1.60;;
79496;SDS011;75160;53.138;18.020;2024-03-17T00:07:36;8.50;;;1.50;;
79496;SDS011;75160;53.138;18.020;2024-03-17T00:08:37;13.80;;;2.10;;
79496;SDS011;75160;53.138;18.020;2024-03-17T00:09:40;9.50;;;1.30;;
79496;SDS011;75160;53.138;18.020;2024-03-17T00:10:42;8.70;;;1.80;;
79496;SDS011;75160;53.138;18.020;2024-03-17T00:11:44;11.10;;;1.50;;
79496;SDS011;75160;53.138;18.020;2024-03-17T00:12:46;11.00;;;1.90;;
79496;SDS011;75160;53.138;18.020;2024-03-17T00:13:48;9.10;;;1.90;;
79496;SDS011;75160;53.138;18.020;2024-03-17T00:14:49;7.60;;;1.50;;
79496;SDS011;75160;53.138;18.020;2024-03-17T00:15:51;9.20;;;2.00;;
79496;SDS011;75160;53.138;18.020;2024-03-17T00:16:53;10.60;;;2.30;;
79496;SDS011;75160;53.138;18.020;2024-03-17T00:17:55;12.10;;;2.20;;
79496;SDS011;75160;53.138;18.020;2024-03-17T00:18:56;9.10;;;2.00;;
79496;SDS011;75160;53.138;18.020;2024-03-17T00:20:00;11.50;;;2.10;;
79496;SDS011;75160;53.138;18.020;2024-03-17T00:21:10;12.70;;;1.90;;
79496;SDS011;75160;53.138;18.020;2024-03-17T00:22:12;10.00;;;2.00;;
79496;SDS011;75160;53.138;18.020;2024-03-17T00:23:15;10.00;;;2.50;;
79496;SDS011;75160;53.138;18.020;2024-03-17T00:24:17;11.00;;;1.60;;
79496;SDS011;75160;53.138;18.020;2024-03-17T00:25:19;10.00;;;1.80;;
79496;SDS011;75160;53.138;18.020;2024-03-17T00:26:21;10.20;;;1.70;;
79496;SDS011;75160;53.138;18.020;2024-03-17T00:27:23;10.20;;;2.30;;
79496;SDS011;75160;53.138;18.020;2024-03-17T00:28:25;14.40;;;2.00;;
79496;SDS011;75160;53.138;18.020;2024-03-17T00:29:26;7.30;;;1.70;;
79496;SDS011;75160;53.138;18.020;2024-03-17T00:30:29;9.90;;;1.70;;
79496;SDS011;75160;53.138;18.020;2024-03-17T00:31:32;14.30;;;2.00;;
79496;SDS011;75160;53.138;18.020;2024-03-17T00:32:34;8.30;;;1.70;;
79496;SDS011;75160;53.138;18.020;2024-03-17T00:33:35;10.30;;;1.70;;
79496;SDS011;75160;53.138;18.020;2024-03-17T00:34:37;7.50;;;1.40;;
79496;SDS011;75160;53.138;18.020;2024-03-17T00:35:39;10.20;;;1.90;;
79496;SDS011;75160;53.138;18.020;2024-03-17T00:36:40;8.60;;;1.50;;
79496;SDS011;75160;53.138;18.020;2024-03-17T00:37:42;9.00;;;1.70;;
79496;SDS011;75160;53.138;18.020;2024-03-17T00:38:44;9.40;;;1.90;;
79496;SDS011;75160;53.138;18.020;2024-03-17T00:39:45;6.70;;;1.40;;
79496;SDS011;75160;53.138;18.020;2024-03-17T00:40:47;8.80;;;1.70;;
79496;SDS011;75160;53.138;18.020;2024-03-17T00:41:50;8.90;;;1.90;;
79496;SDS011;75160;53.138;18.020;2024-03-17T00:42:51;9.40;;;1.60;;
79496;SDS011;75160;53.138;18.020;2024-03-17T00:43:55;7.50;;;1.30;;
79496;SDS011;75160;53.138;18.020;2024-03-17T00:44:57;9.50;;;1.80;;
79496;SDS011;75160;53.138;18.020;2024-03-17T00:46:01;10.00;;;1.70;;
79496;SDS011;75160;53.138;18.020;2024-03-17T00:47:03;9.20;;;1.30;;
79496;SDS011;75160;53.138;18.020;2024-03-17T00:48:05;7.30;;;1.70;;
79496;SDS011;75160;53.138;18.020;2024-03-17T00:49:09;11.20;;;1.40;;
79496;SDS011;75160;53.138;18.020;2024-03-17T00:50:12;8.00;;;1.70;;
79496;SDS011;75160;53.138;18.020;2024-03-17T00:51:14;9.60;;;1.80;;
79496;SDS011;75160;53.138;18.020;2024-03-17T00:52:16;11.50;;;2.00;;
79496;SDS011;75160;53.138;18.020;2024-03-17T00:53:18;7.70;;;1.20;;
79496;SDS011;75160;53.138;18.020;2024-03-17T00:54:20;9.00;;;1.60;;
79496;SDS011;75160;53.138;18.020;2024-03-17T00:55:22;7.70;;;1.20;;
79496;SDS011;75160;53.138;18.020;2024-03-17T00:56:23;7.60;;;1.40;;
79496;SDS011;75160;53.138;18.020;2024-03-17T00:57:25;7.10;;;1.30;;
79496;SDS011;75160;53.138;18.020;2024-03-17T01:00:06;6.60;;;1.60;;
79496;SDS011;75160;53.138;18.020;2024-03-17T01:01:13;5.30;;;1.40;;
79496;SDS011;75160;53.138;18.020;2024-03-17T01:02:15;8.90;;;1.60;;
79496;SDS011;75160;53.138;18.020;2024-03-17T01:03:20;9.60;;;1.50;;
79496;SDS011;75160;53.138;18.020;2024-03-17T01:04:22;6.00;;;1.20;;
79496;SDS011;75160;53.138;18.020;2024-03-17T01:05:23;8.70;;;1.40;;
79496;SDS011;75160;53.138;18.020;2024-03-17T01:06:25;9.00;;;1.40;;
79496;SDS011;75160;53.138;18.020;2024-03-17T01:07:27;7.60;;;1.40;;
79496;SDS011;75160;53.138;18.020;2024-03-17T01:08:28;8.80;;;1.30;;
79496;SDS011;75160;53.138;18.020;2024-03-17T01:09:30;9.40;;;1.30;;
79496;SDS011;75160;53.138;18.020;2024-03-17T01:10:32;5.90;;;1.10;;
79496;SDS011;75160;53.138;18.020;2024-03-17T01:11:34;8.50;;;1.40;;
79496;SDS011;75160;53.138;18.020;2024-03-17T01:12:36;6.80;;;1.50;;
79496;SDS011;75160;53.138;18.020;2024-03-17T01:13:37;6.10;;;1.00;;
79496;SDS011;75160;53.138;18.020;2024-03-17T01:14:42;8.70;;;1.10;;
79496;SDS011;75160;53.138;18.020;2024-03-17T01:15:44;7.00;;;1.10;;
79496;SDS011;75160;53.138;18.020;2024-03-17T01:16:46;7.20;;;1.40;;
79496;SDS011;75160;53.138;18.020;2024-03-17T01:17:47;7.10;;;1.00;;
79496;SDS011;75160;53.138;18.020;2024-03-17T01:18:51;10.20;;;1.30;;
79496;SDS011;75160;53.138;18.020;2024-03-17T01:19:53;7.50;;;0.90;;
79496;SDS011;75160;53.138;18.020;2024-03-17T01:20:54;8.40;;;1.30;;
79496;SDS011;75160;53.138;18.020;2024-03-17T01:21:56;9.30;;;1.40;;
79496;SDS011;75160;53.138;18.020;2024-03-17T01:22:57;10.10;;;1.60;;
79496;SDS011;75160;53.138;18.020;2024-03-17T01:23:59;8.10;;;1.60;;
79496;SDS011;75160;53.138;18.020;2024-03-17T01:25:01;8.80;;;1.60;;
79496;SDS011;75160;53.138;18.020;2024-03-17T01:26:03;8.10;;;1.60;;
79496;SDS011;75160;53.138;18.020;2024-03-17T01:27:05;14.50;;;1.80;;
79496;SDS011;75160;53.138;18.020;2024-03-17T01:28:07;10.40;;;1.40;;
79496;SDS011;75160;53.138;18.020;2024-03-17T01:29:10;11.10;;;1.50;;
79496;SDS011;75160;53.138;18.020;2024-03-17T01:30:12;10.40;;;1.70;;
79496;SDS011;75160;53.138;18.020;2024-03-17T01:31:14;7.90;;;1.90;;
79496;SDS011;75160;53.138;18.020;2024-03-17T01:32:16;13.30;;;1.30;;
79496;SDS011;75160;53.138;18.020;2024-03-17T01:33:18;8.30;;;1.30;;
79496;SDS011;75160;53.138;18.020;2024-03-17T01:34:19;7.70;;;1.60;;
79496;SDS011;75160;53.138;18.020;2024-03-17T01:35:21;8.20;;;1.70;;
79496;SDS011;75160;53.138;18.020;2024-03-17T01:36:24;6.80;;;1.10;;
79496;SDS011;75160;53.138;18.020;2024-03-17T01:37:25;8.20;;;1.40;;
79496;SDS011;75160;53.138;18.020;2024-03-17T01:38:27;9.70;;;1.90;;
79496;SDS011;75160;53.138;18.020;2024-03-17T01:39:29;11.00;;;2.30;;
79496;SDS011;75160;53.138;18.020;2024-03-17T01:40:32;11.20;;;1.90;;
79496;SDS011;75160;53.138;18.020;2024-03-17T01:41:34;13.20;;;2.10;;
79496;SDS011;75160;53.138;18.020;2024-03-17T01:42:37;7.70;;;1.80;;
79496;SDS011;75160;53.138;18.020;2024-03-17T01:43:39;16.30;;;2.60;;
79496;SDS011;75160;53.138;18.020;2024-03-17T01:44:41;13.70;;;2.60;;
79496;SDS011;75160;53.138;18.020;2024-03-17T01:45:43;11.40;;;2.40;;
79496;SDS011;75160;53.138;18.020;2024-03-17T01:46:45;8.30;;;1.50;;
79496;SDS011;75160;53.138;18.020;2024-03-17T01:47:46;13.30;;;2.40;;
79496;SDS011;75160;53.138;18.020;2024-03-17T01:48:48;14.50;;;3.40;;
79496;SDS011;75160;53.138;18.020;2024-03-17T01:49:50;12.30;;;3.00;;
79496;SDS011;75160;53.138;18.020;2024-03-17T01:50:55;9.90;;;2.40;;
79496;SDS011;75160;53.138;18.020;2024-03-17T01:51:58;8.20;;;1.70;;
79496;SDS011;75160;53.138;18.020;2024-03-17T01:53:02;9.90;;;2.20;;
79496;SDS011;75160;53.138;18.020;2024-03-17T01:54:08;8.40;;;1.80;;
79496;SDS011;75160;53.138;18.020;2024-03-17T01:55:10;12.00;;;2.00;;
79496;SDS011;75160;53.138;18.020;2024-03-17T01:56:14;9.30;;;2.20;;
79496;SDS011;75160;53.138;18.020;2024-03-17T01:57:19;10.40;;;2.40;;
79496;SDS011;75160;53.138;18.020;2024-03-17T01:58:20;11.10;;;2.00;;
79496;SDS011;75160;53.138;18.020;2024-03-17T01:59:26;10.90;;;2.00;;
79496;SDS011;75160;53.138;18.020;2024-03-17T02:00:28;6.10;;;1.70;;
79496;SDS011;75160;53.138;18.020;2024-03-17T02:01:32;8.60;;;2.20;;
79496;SDS011;75160;53.138;18.020;2024-03-17T02:02:34;10.20;;;2.10;;
79496;SDS011;75160;53.138;18.020;2024-03-17T02:03:36;8.90;;;1.90;;
79496;SDS011;75160;53.138;18.020;2024-03-17T02:04:38;11.00;;;2.20;;
79496;SDS011;75160;53.138;18.020;2024-03-17T02:05:40;9.00;;;2.00;;
79496;SDS011;75160;53.138;18.020;2024-03-17T02:06:42;9.50;;;2.20;;
79496;SDS011;75160;53.138;18.020;2024-03-17T02:07:43;15.40;;;2.10;;
79496;SDS011;75160;53.138;18.020;2024-03-17T02:08:53;8.20;;;1.80;;
79496;SDS011;75160;53.138;18.020;2024-03-17T02:09:56;7.90;;;1.40;;
79496;SDS011;75160;53.138;18.020;2024-03-17T02:10:58;10.60;;;1.70;;
79496;SDS011;75160;53.138;18.020;2024-03-17T02:12:00;9.00;;;1.70;;
79496;SDS011;75160;53.138;18.020;2024-03-17T02:13:02;10.50;;;2.10;;
79496;SDS011;75160;53.138;18.020;2024-03-17T02:14:04;9.60;;;1.80;;
79496;SDS011;75160;53.138;18.020;2024-03-17T02:15:08;9.20;;;1.70;;
79496;SDS011;75160;53.138;18.020;2024-03-17T02:16:10;5.60;;;1.40;;
79496;SDS011;75160;53.138;18.020;2024-03-17T02:17:12;8.00;;;1.80;;
79496;SDS011;75160;53.138;18.020;2024-03-17T02:18:13;8.00;;;1.70;;
79496;SDS011;75160;53.138;18.020;2024-03-17T02:19:15;8.30;;;1.90;;
79496;SDS011;75160;53.138;18.020;2024-03-17T02:20:17;10.00;;;1.80;;
79496;SDS011;75160;53.138;18.020;2024-03-17T02:21:19;5.90;;;1.60;;
79496;SDS011;75160;53.138;18.020;2024-03-17T02:22:21;10.10;;;2.10;;
79496;SDS011;75160;53.138;18.020;2024-03-17T02:23:22;9.10;;;1.90;;
79496;SDS011;75160;53.138;18.020;2024-03-17T02:24:27;7.40;;;1.50;;
79496;SDS011;75160;53.138;18.020;2024-03-17T02:25:29;9.60;;;2.00;;
79496;SDS011;75160;53.138;18.020;2024-03-17T02:26:30;8.10;;;1.80;;
79496;SDS011;75160;53.138;18.020;2024-03-17T02:27:32;9.10;;;1.60;;
79496;SDS011;75160;53.138;18.020;2024-03-17T02:28:41;8.00;;;1.90;;
79496;SDS011;75160;53.138;18.020;2024-03-17T02:29:43;8.50;;;1.70;;
79496;SDS011;75160;53.138;18.020;2024-03-17T02:30:45;6.90;;;1.20;;
79496;SDS011;75160;53.138;18.020;2024-03-17T02:31:47;8.60;;;1.30;;
79496;SDS011;75160;53.138;18.020;2024-03-17T02:32:52;7.20;;;1.70;;
79496;SDS011;75160;53.138;18.020;2024-03-17T02:33:54;7.20;;;1.90;;
79496;SDS011;75160;53.138;18.020;2024-03-17T02:34:56;9.40;;;1.40;;
79496;SDS011;75160;53.138;18.020;2024-03-17T02:35:58;9.50;;;1.90;;
79496;SDS011;75160;53.138;18.020;2024-03-17T02:37:01;12.00;;;1.90;;
79496;SDS011;75160;53.138;18.020;2024-03-17T02:38:04;7.20;;;1.50;;
79496;SDS011;75160;53.138;18.020;2024-03-17T02:39:06;8.60;;;1.60;;
79496;SDS011;75160;53.138;18.020;2024-03-17T02:40:26;9.90;;;1.70;;
79496;SDS011;75160;53.138;18.020;2024-03-17T02:41:27;8.10;;;1.60;;
79496;SDS011;75160;53.138;18.020;2024-03-17T02:42:32;5.20;;;1.10;;
79496;SDS011;75160;53.138;18.020;2024-03-17T02:43:34;8.50;;;1.90;;
79496;SDS011;75160;53.138;18.020;2024-03-17T02:44:37;8.60;;;1.70;;
79496;SDS011;75160;53.138;18.020;2024-03-17T02:45:43;10.50;;;2.20;;
79496;SDS011;75160;53.138;18.020;2024-03-17T02:46:44;7.70;;;1.40;;
79496;SDS011;75160;53.138;18.020;2024-03-17T02:47:46;9.30;;;1.70;;
79496;SDS011;75160;53.138;18.020;2024-03-17T02:48:51;7.80;;;1.40;;
79496;SDS011;75160;53.138;18.020;2024-03-17T02:49:54;10.10;;;1.50;;
79496;SDS011;75160;53.138;18.020;2024-03-17T02:50:56;6.20;;;1.60;;
79496;SDS011;75160;53.138;18.020;2024-03-17T02:51:57;9.80;;;2.00;;
79496;SDS011;75160;53.138;18.020;2024-03-17T02:53:00;9.20;;;2.60;;
79496;SDS011;75160;53.138;18.020;2024-03-17T02:54:04;8.40;;;1.70;;
79496;SDS011;75160;53.138;18.020;2024-03-17T02:55:07;9.40;;;1.50;;
79496;SDS011;75160;53.138;18.020;2024-03-17T02:56:09;8.20;;;1.40;;
79496;SDS011;75160;53.138;18.020;2024-03-17T02:57:10;5.70;;;1.60;;
79496;SDS011;75160;53.138;18.020;2024-03-17T02:58:12;8.50;;;1.30;;
79496;SDS011;75160;53.138;18.020;2024-03-17T02:59:14;7.30;;;1.50;;
79496;SDS011;75160;53.138;18.020;2024-03-17T03:00:16;7.90;;;1.80;;
79496;SDS011;75160;53.138;18.020;2024-03-17T03:01:18;8.00;;;1.70;;
79496;SDS011;75160;53.138;18.020;2024-03-17T03:02:20;7.40;;;1.40;;
79496;SDS011;75160;53.138;18.020;2024-03-17T03:03:22;8.80;;;1.60;;
79496;SDS011;75160;53.138;18.020;2024-03-17T03:04:24;8.50;;;1.40;;
79496;SDS011;75160;53.138;18.020;2024-03-17T03:05:26;8.50;;;1.50;;
79496;SDS011;75160;53.138;18.020;2024-03-17T03:06:27;10.20;;;1.90;;
79496;SDS011;75160;53.138;18.020;2024-03-17T03:07:29;8.50;;;1.80;;
79496;SDS011;75160;53.138;18.020;2024-03-17T03:08:31;7.90;;;1.60;;
79496;SDS011;75160;53.138;18.020;2024-03-17T03:09:32;11.20;;;2.60;;
79496;SDS011;75160;53.138;18.020;2024-03-17T03:10:34;7.10;;;1.60;;
79496;SDS011;75160;53.138;18.020;2024-03-17T03:11:36;4.60;;;1.30;;
79496;SDS011;75160;53.138;18.020;2024-03-17T03:12:38;8.90;;;1.50;;
79496;SDS011;75160;53.138;18.020;2024-03-17T03:13:41;10.40;;;1.50;;
79496;SDS011;75160;53.138;18.020;2024-03-17T03:14:44;5.60;;;1.60;;
79496;SDS011;75160;53.138;18.020;2024-03-17T03:15:49;10.60;;;1.60;;
79496;SDS011;75160;53.138;18.020;2024-03-17T03:16:50;7.50;;;1.20;;
79496;SDS011;75160;53.138;18.020;2024-03-17T03:17:52;8.70;;;1.90;;
79496;SDS011;75160;53.138;18.020;2024-03-17T03:18:53;5.80;;;1.50;;
79496;SDS011;75160;53.138;18.020;2024-03-17T03:19:55;7.90;;;1.40;;
79496;SDS011;75160;53.138;18.020;2024-03-17T03:20:57;8.80;;;1.90;;
79496;SDS011;75160;53.138;18.020;2024-03-17T03:21:58;6.70;;;1.40;;
79496;SDS011;75160;53.138;18.020;2024-03-17T03:23:00;7.20;;;1.40;;
79496;SDS011;75160;53.138;18.020;2024-03-17T03:24:03;6.10;;;1.40;;
79496;SDS011;75160;53.138;18.020;2024-03-17T03:25:05;9.70;;;1.50;;
79496;SDS011;75160;53.138;18.020;2024-03-17T03:26:07;8.30;;;1.60;;
79496;SDS011;75160;53.138;18.020;2024-03-17T03:27:10;9.30;;;1.60;;
79496;SDS011;75160;53.138;18.020;2024-03-17T03:28:12;11.40;;;1.60;;
79496;SDS011;75160;53.138;18.020;2024-03-17T03:29:13;10.60;;;1.50;;
79496;SDS011;75160;53.138;18.020;2024-03-17T03:30:18;8.20;;;1.50;;
79496;SDS011;75160;53.138;18.020;2024-03-17T03:31:22;7.10;;;1.40;;
79496;SDS011;75160;53.138;18.020;2024-03-17T03:32:24;7.30;;;1.40;;
79496;SDS011;75160;53.138;18.020;2024-03-17T03:33:25;8.10;;;1.30;;
79496;SDS011;75160;53.138;18.020;2024-03-17T03:34:28;7.00;;;1.40;;
79496;SDS011;75160;53.138;18.020;2024-03-17T03:35:30;7.90;;;1.50;;
79496;SDS011;75160;53.138;18.020;2024-03-17T03:36:32;11.60;;;1.60;;
79496;SDS011;75160;53.138;18.020;2024-03-17T03:37:34;9.80;;;1.40;;
79496;SDS011;75160;53.138;18.020;2024-03-17T03:38:36;8.00;;;1.50;;
79496;SDS011;75160;53.138;18.020;2024-03-17T03:39:38;5.50;;;1.20;;
79496;SDS011;75160;53.138;18.020;2024-03-17T03:40:40;9.50;;;2.10;;
79496;SDS011;75160;53.138;18.020;2024-03-17T03:41:43;7.20;;;1.60;;
79496;SDS011;75160;53.138;18.020;2024-03-17T03:42:45;8.00;;;1.60;;
79496;SDS011;75160;53.138;18.020;2024-03-17T03:43:46;4.70;;;0.90;;
79496;SDS011;75160;53.138;18.020;2024-03-17T03:44:49;6.50;;;1.50;;
79496;SDS011;75160;53.138;18.020;2024-03-17T03:45:50;11.10;;;1.30;;
79496;SDS011;75160;53.138;18.020;2024-03-17T03:46:52;7.20;;;1.60;;
79496;SDS011;75160;53.138;18.020;2024-03-17T03:47:57;9.80;;;2.10;;
79496;SDS011;75160;53.138;18.020;2024-03-17T03:48:59;7.10;;;1.20;;
79496;SDS011;75160;53.138;18.020;2024-03-17T03:50:01;6.10;;;0.80;;
79496;SDS011;75160;53.138;18.020;2024-03-17T03:51:06;8.70;;;1.50;;
79496;SDS011;75160;53.138;18.020;2024-03-17T03:52:08;4.90;;;1.30;;
79496;SDS011;75160;53.138;18.020;2024-03-17T03:53:10;7.40;;;1.20;;
79496;SDS011;75160;53.138;18.020;2024-03-17T03:54:13;9.00;;;1.40;;
79496;SDS011;75160;53.138;18.020;2024-03-17T03:55:15;6.80;;;1.10;;
79496;SDS011;75160;53.138;18.020;2024-03-17T03:56:18;10.30;;;1.30;;
79496;SDS011;75160;53.138;18.020;2024-03-17T03:57:21;7.20;;;1.40;;
79496;SDS011;75160;53.138;18.020;2024-03-17T03:58:23;6.90;;;1.00;;
79496;SDS011;75160;53.138;18.020;2024-03-17T03:59:25;6.40;;;1.10;;
79496;SDS011;75160;53.138;18.020;2024-03-17T04:00:27;8.80;;;1.10;;
79496;SDS011;75160;53.138;18.020;2024-03-17T04:01:32;7.20;;;1.30;;
79496;SDS011;75160;53.138;18.020;2024-03-17T04:02:34;7.00;;;1.50;;
79496;SDS011;75160;53.138;18.020;2024-03-17T04:03:36;7.40;;;1.30;;
79496;SDS011;75160;53.138;18.020;2024-03-17T04:04:37;7.60;;;1.30;;
79496;SDS011;75160;53.138;18.020;2024-03-17T04:05:39;9.90;;;1.40;;
79496;SDS011;75160;53.138;18.020;2024-03-17T04:06:41;8.60;;;1.20;;
79496;SDS011;75160;53.138;18.020;2024-03-17T04:07:43;8.30;;;1.60;;
79496;SDS011;75160;53.138;18.020;2024-03-17T04:08:47;8.20;;;1.00;;
79496;SDS011;75160;53.138;18.020;2024-03-17T04:09:49;6.80;;;1.20;;
79496;SDS011;75160;53.138;18.020;2024-03-17T04:10:50;8.30;;;1.00;;
79496;SDS011;75160;53.138;18.020;2024-03-17T04:11:53;12.60;;;1.50;;
79496;SDS011;75160;53.138;18.020;2024-03-17T04:12:54;12.10;;;1.50;;
79496;SDS011;75160;53.138;18.020;2024-03-17T04:13:56;8.00;;;1.60;;
79496;SDS011;75160;53.138;18.020;2024-03-17T04:15:01;6.70;;;1.40;;
79496;SDS011;75160;53.138;18.020;2024-03-17T04:16:04;7.20;;;1.20;;
79496;SDS011;75160;53.138;18.020;2024-03-17T04:17:07;6.20;;;1.40;;
79496;SDS011;75160;53.138;18.020;2024-03-17T04:18:09;10.80;;;1.70;;
79496;SDS011;75160;53.138;18.020;2024-03-17T04:19:10;7.60;;;1.30;;
79496;SDS011;75160;53.138;18.020;2024-03-17T04:20:12;5.30;;;1.60;;
79496;SDS011;75160;53.138;18.020;2024-03-17T04:21:17;6.30;;;1.30;;
79496;SDS011;75160;53.138;18.020;2024-03-17T04:22:20;8.00;;;1.40;;
79496;SDS011;75160;53.138;18.020;2024-03-17T04:23:23;10.40;;;1.40;;
79496;SDS011;75160;53.138;18.020;2024-03-17T04:24:25;7.30;;;1.50;;
79496;SDS011;75160;53.138;18.020;2024-03-17T04:25:27;9.10;;;1.40;;
79496;SDS011;75160;53.138;18.020;2024-03-17T04:26:28;5.80;;;1.20;;
79496;SDS011;75160;53.138;18.020;2024-03-17T04:27:30;8.00;;;1.30;;
79496;SDS011;75160;53.138;18.020;2024-03-17T04:28:32;6.00;;;1.10;;
79496;SDS011;75160;53.138;18.020;2024-03-17T04:29:33;8.70;;;1.40;;
79496;SDS011;75160;53.138;18.020;2024-03-17T04:30:36;7.10;;;1.90;;
79496;SDS011;75160;53.138;18.020;2024-03-17T04:31:38;7.90;;;1.50;;
79496;SDS011;75160;53.138;18.020;2024-03-17T04:32:39;5.10;;;1.30;;
79496;SDS011;75160;53.138;18.020;2024-03-17T04:33:41;7.40;;;1.70;;
79496;SDS011;75160;53.138;18.020;2024-03-17T04:34:43;6.80;;;1.70;;
79496;SDS011;75160;53.138;18.020;2024-03-17T04:35:45;6.40;;;1.40;;
79496;SDS011;75160;53.138;18.020;2024-03-17T04:36:46;7.90;;;1.50;;
79496;SDS011;75160;53.138;18.020;2024-03-17T04:37:48;9.80;;;2.00;;
79496;SDS011;75160;53.138;18.020;2024-03-17T04:38:49;11.90;;;1.90;;
79496;SDS011;75160;53.138;18.020;2024-03-17T04:39:52;8.40;;;1.40;;
79496;SDS011;75160;53.138;18.020;2024-03-17T04:40:54;7.80;;;1.70;;
79496;SDS011;75160;53.138;18.020;2024-03-17T04:42:12;11.60;;;1.50;;
79496;SDS011;75160;53.138;18.020;2024-03-17T04:43:16;9.60;;;1.60;;
79496;SDS011;75160;53.138;18.020;2024-03-17T04:44:17;5.10;;;1.40;;
79496;SDS011;75160;53.138;18.020;2024-03-17T04:45:19;6.10;;;1.40;;
79496;SDS011;75160;53.138;18.020;2024-03-17T04:46:21;8.50;;;1.30;;
79496;SDS011;75160;53.138;18.020;2024-03-17T04:47:22;8.10;;;1.30;;
79496;SDS011;75160;53.138;18.020;2024-03-17T04:48:24;6.40;;;1.60;;
79496;SDS011;75160;53.138;18.020;2024-03-17T04:49:26;6.50;;;1.40;;
79496;SDS011;75160;53.138;18.020;2024-03-17T04:50:27;5.80;;;1.30;;
79496;SDS011;75160;53.138;18.020;2024-03-17T04:51:33;6.20;;;1.30;;
79496;SDS011;75160;53.138;18.020;2024-03-17T04:52:35;4.90;;;1.50;;
79496;SDS011;75160;53.138;18.020;2024-03-17T04:53:37;7.50;;;1.50;;
79496;SDS011;75160;53.138;18.020;2024-03-17T04:54:38;7.50;;;1.60;;
79496;SDS011;75160;53.138;18.020;2024-03-17T04:55:42;5.70;;;1.40;;
79496;SDS011;75160;53.138;18.020;2024-03-17T04:56:44;7.20;;;2.60;;
79496;SDS011;75160;53.138;18.020;2024-03-17T04:57:46;8.90;;;1.80;;
79496;SDS011;75160;53.138;18.020;2024-03-17T04:58:47;5.90;;;1.40;;
79496;SDS011;75160;53.138;18.020;2024-03-17T04:59:49;5.60;;;1.70;;
79496;SDS011;75160;53.138;18.020;2024-03-17T05:00:50;4.50;;;1.30;;
79496;SDS011;75160;53.138;18.020;2024-03-17T05:01:52;5.90;;;1.60;;
79496;SDS011;75160;53.138;18.020;2024-03-17T05:02:54;6.30;;;1.50;;
79496;SDS011;75160;53.138;18.020;2024-03-17T05:03:56;7.20;;;1.40;;
79496;SDS011;75160;53.138;18.020;2024-03-17T05:04:58;8.10;;;1.60;;
79496;SDS011;75160;53.138;18.020;2024-03-17T05:06:04;6.10;;;1.40;;
79496;SDS011;75160;53.138;18.020;2024-03-17T05:07:06;6.40;;;1.40;;
79496;SDS011;75160;53.138;18.020;2024-03-17T05:08:08;6.40;;;1.50;;
79496;SDS011;75160;53.138;18.020;2024-03-17T05:09:10;7.50;;;1.40;;
79496;SDS011;75160;53.138;18.020;2024-03-17T05:10:14;7.00;;;1.30;;
79496;SDS011;75160;53.138;18.020;2024-03-17T05:11:15;7.90;;;1.40;;
79496;SDS011;75160;53.138;18.020;2024-03-17T05:12:17;5.60;;;1.30;;
79496;SDS011;75160;53.138;18.020;2024-03-17T05:13:19;7.70;;;1.60;;
79496;SDS011;75160;53.138;18.020;2024-03-17T05:14:20;4.70;;;1.40;;
79496;SDS011;75160;53.138;18.020;2024-03-17T05:15:23;7.20;;;1.30;;
79496;SDS011;75160;53.138;18.020;2024-03-17T05:16:24;5.40;;;1.20;;
79496;SDS011;75160;53.138;18.020;2024-03-17T05:17:26;5.10;;;1.20;;
79496;SDS011;75160;53.138;18.020;2024-03-17T05:18:27;5.80;;;1.60;;
79496;SDS011;75160;53.138;18.020;2024-03-17T05:19:29;7.60;;;1.70;;
79496;SDS011;75160;53.138;18.020;2024-03-17T05:20:31;4.20;;;0.90;;
79496;SDS011;75160;53.138;18.020;2024-03-17T05:21:33;6.20;;;1.00;;
79496;SDS011;75160;53.138;18.020;2024-03-17T05:22:34;4.10;;;1.40;;
79496;SDS011;75160;53.138;18.020;2024-03-17T05:23:36;4.90;;;1.20;;
79496;SDS011;75160;53.138;18.020;2024-03-17T05:24:38;4.10;;;1.10;;
79496;SDS011;75160;53.138;18.020;2024-03-17T05:25:40;4.70;;;1.40;;
79496;SDS011;75160;53.138;18.020;2024-03-17T05:26:41;6.30;;;1.60;;
79496;SDS011;75160;53.138;18.020;2024-03-17T05:27:43;3.90;;;0.90;;
79496;SDS011;75160;53.138;18.020;2024-03-17T05:28:45;2.70;;;1.30;;
79496;SDS011;75160;53.138;18.020;2024-03-17T05:29:47;4.00;;;1.00;;
79496;SDS011;75160;53.138;18.020;2024-03-17T05:30:49;5.40;;;0.90;;
79496;SDS011;75160;53.138;18.020;2024-03-17T05:31:52;2.80;;;0.70;;
79496;SDS011;75160;53.138;18.020;2024-03-17T05:32:53;2.50;;;0.80;;
79496;SDS011;75160;53.138;18.020;2024-03-17T05:33:55;3.00;;;0.70;;
79496;SDS011;75160;53.138;18.020;2024-03-17T05:34:57;5.00;;;0.80;;
79496;SDS011;75160;53.138;18.020;2024-03-17T05:36:00;2.40;;;0.60;;
79496;SDS011;75160;53.138;18.020;2024-03-17T05:37:03;3.20;;;1.00;;
79496;SDS011;75160;53.138;18.020;2024-03-17T05:38:05;3.50;;;0.80;;
79496;SDS011;75160;53.138;18.020;2024-03-17T05:39:11;2.30;;;0.80;;
79496;SDS011;75160;53.138;18.020;2024-03-17T05:40:13;2.80;;;0.60;;
79496;SDS011;75160;53.138;18.020;2024-03-17T05:41:14;2.80;;;0.70;;
79496;SDS011;75160;53.138;18.020;2024-03-17T05:42:16;2.20;;;0.70;;
79496;SDS011;75160;53.138;18.020;2024-03-17T05:43:18;3.40;;;0.80;;
79496;SDS011;75160;53.138;18.020;2024-03-17T05:44:20;4.40;;;0.90;;
79496;SDS011;75160;53.138;18.020;2024-03-17T05:45:21;3.10;;;0.70;;
79496;SDS011;75160;53.138;18.020;2024-03-17T05:46:25;2.50;;;0.90;;
79496;SDS011;75160;53.138;18.020;2024-03-17T05:47:28;2.50;;;0.70;;
79496;SDS011;75160;53.138;18.020;2024-03-17T05:48:30;3.00;;;0.70;;
79496;SDS011;75160;53.138;18.020;2024-03-17T05:49:32;3.40;;;0.80;;
79496;SDS011;75160;53.138;18.020;2024-03-17T05:50:34;3.50;;;0.60;;
79496;SDS011;75160;53.138;18.020;2024-03-17T05:51:36;2.50;;;0.90;;
79496;SDS011;75160;53.138;18.020;2024-03-17T05:52:38;2.90;;;0.70;;
79496;SDS011;75160;53.138;18.020;2024-03-17T05:53:40;2.60;;;0.80;;
79496;SDS011;75160;53.138;18.020;2024-03-17T05:54:41;3.30;;;0.90;;
79496;SDS011;75160;53.138;18.020;2024-03-17T05:55:43;3.90;;;1.00;;
79496;SDS011;75160;53.138;18.020;2024-03-17T05:56:46;2.00;;;0.80;;
79496;SDS011;75160;53.138;18.020;2024-03-17T05:57:47;5.60;;;0.80;;
79496;SDS011;75160;53.138;18.020;2024-03-17T05:58:49;3.00;;;0.60;;
79496;SDS011;75160;53.138;18.020;2024-03-17T05:59:51;4.00;;;0.60;;
79496;SDS011;75160;53.138;18.020;2024-03-17T06:00:53;3.60;;;0.70;;
79496;SDS011;75160;53.138;18.020;2024-03-17T06:01:55;2.50;;;0.50;;
79496;SDS011;75160;53.138;18.020;2024-03-17T06:02:57;2.80;;;1.10;;
79496;SDS011;75160;53.138;18.020;2024-03-17T06:03:58;3.50;;;0.90;;
79496;SDS011;75160;53.138;18.020;2024-03-17T06:05:01;3.80;;;0.50;;
79496;SDS011;75160;53.138;18.020;2024-03-17T06:06:06;2.90;;;0.80;;
79496;SDS011;75160;53.138;18.020;2024-03-17T06:07:11;1.80;;;0.60;;
79496;SDS011;75160;53.138;18.020;2024-03-17T06:08:13;3.40;;;0.80;;
79496;SDS011;75160;53.138;18.020;2024-03-17T06:09:15;3.00;;;0.60;;
79496;SDS011;75160;53.138;18.020;2024-03-17T06:10:20;3.20;;;1.10;;
79496;SDS011;75160;53.138;18.020;2024-03-17T06:11:25;2.40;;;0.50;;